KASX/ASX METAR and TAF weather

Enter ICAO airport designator
Station Type Date Time Source
KASX METAR 2018/07/21 22:53 UTC NOAA

KASX 212253Z AUTO 05009KT 10SM SCT017 BKN025 21/17 A3008 RMK AO2 SLP187 T02060172


Station Type Date Time Source
KASX Decoded METAR 2018/07/21 22:53 UTC NOAA

ASHLAND KENNEDY MEMORIAL, WI, United States (KASX) 46-33N 090-55W 251M
Jul 21, 2018 - 06:53 PM EDT / 2018.07.21 2253 UTC
Wind: from the NE (050 degrees) at 10 MPH (9 KT):0
Visibility: 10 mile(s):0
Sky conditions: mostly cloudy
Temperature: 69.1 F (20.6 C)
Dew Point: 63.0 F (17.2 C)
Relative Humidity: 80%
Pressure (altimeter): 30.08 in. Hg (1018 hPa)
ob: KASX 212253Z AUTO 05009KT 10SM SCT017 BKN025 21/17 A3008 RMK AO2 SLP187 T02060172
cycle: 23

Station Type Date Time Source
KASX TAF UTC NOAA

Error!


Example: see airport list